Portada
METAR-TAF:

METAR-TAF

Aeropuertos :

Aeropuerto Internacional de Ottawa

Ottawa, Ontario, Canadá

latitud: 45-19N, longitud: 075-40W, altitud: 116 m

Observación

El informe se hizo hace 30 minutos, a las 07:00 UTC
Viento 6 kt del sur-sureste
Temperatura 20°C
Humedad 68%
Presión 1017 hPa
Visibilidad: 24.1 km
Escasas nubes a una altura de 25000 ft

METAR: CYOW 210700Z 16006KT 15SM FEW250 20/14 A3003 RMK CI1 SLP170 DENSITY ALT 1000FT

Hora: 03:30 (07:30 UTC)

Pronóstico

El informe se hizo hace 1 hora y 51 minutos, a las 05:39 UTC
Pronóstico válido del 21 a las 06 UTC al 22 a las 06 UTC
Viento 6 kt del sureste
Visibilidad: 10 km
Escasas nubes a una altura de 25000 ft
Evolucionando progresivamente
del 21 a las 23 UTC al 21 a las 24 UTC
Viento 8 kt del este-noreste

TAF: CYOW 210539Z 2106/2206 13006KT P6SM FEW250 BECMG 2123/2124 07008KT RMK NXT FCST BY 210900Z

Observaciones y pronósticos meteorológicos de más de 4000 aeropuertos (mensajes METAR y TAF).

Los puntos amarillos y rojos representan las estaciones disponibles.

Ponga el ratón en el punto deseado para ver el nombre de la estación.

Haga clic para ver las observaciones y los pronósticos meteorológicos.

Para cambiar el mapa : haga clic en los botones verdes con una cruz de color negro para hacer un zoom, en el botón verde con un guión para alejar o en las flechas verdes para mapas adyacentes.


METAR-TAF: